< < Back
Terminal Aerodrome Forecast


Current Version              Previous Versions:   1  2  3  4  5  6  7  8  9  

Terminal Aerodrome Forecast

606
FTUS44 KMOB 231742
TAFPNS
TAF
KPNS 231742Z 2318/2418 14010KT P6SM VCTS SCT030CB SCT090 BKN250
     FM232300 17004KT P6SM SCT250=

Latest METAR

611
SAUS70 KWBC 242000 RRH
MTRPNS
METAR KPNS 241953Z 14009KT 10SM BKN025 31/24 A2999 RMK AO2 LTG DSNT W-NE
SLP154 T03060244


USA.gov is the U.S. government's official web portal to all federal, state and local government web resources and services.